sensor_id;sensor_type;location;lat;lon;timestamp;P1;durP1;ratioP1;P2;durP2;ratioP2
18772;SDS011;9515;50.810;4.418;2023-03-01T00:01:23;21.87;;;14.40;;
18772;SDS011;9515;50.810;4.418;2023-03-01T00:03:51;23.90;;;15.33;;
18772;SDS011;9515;50.810;4.418;2023-03-01T00:06:17;24.13;;;14.50;;
18772;SDS011;9515;50.810;4.418;2023-03-01T00:08:43;24.67;;;16.30;;
18772;SDS011;9515;50.810;4.418;2023-03-01T00:11:13;21.80;;;14.87;;
18772;SDS011;9515;50.810;4.418;2023-03-01T00:13:48;22.27;;;14.60;;
18772;SDS011;9515;50.810;4.418;2023-03-01T00:16:18;21.67;;;14.67;;
18772;SDS011;9515;50.810;4.418;2023-03-01T00:18:55;23.63;;;15.20;;
18772;SDS011;9515;50.810;4.418;2023-03-01T00:21:21;20.57;;;14.80;;
18772;SDS011;9515;50.810;4.418;2023-03-01T00:23:48;19.73;;;14.43;;
18772;SDS011;9515;50.810;4.418;2023-03-01T00:26:15;19.80;;;14.40;;
18772;SDS011;9515;50.810;4.418;2023-03-01T00:28:42;19.93;;;14.80;;
18772;SDS011;9515;50.810;4.418;2023-03-01T00:31:17;22.40;;;14.47;;
18772;SDS011;9515;50.810;4.418;2023-03-01T00:33:45;20.00;;;14.30;;
18772;SDS011;9515;50.810;4.418;2023-03-01T00:36:12;20.63;;;13.10;;
18772;SDS011;9515;50.810;4.418;2023-03-01T00:38:39;21.47;;;14.20;;
18772;SDS011;9515;50.810;4.418;2023-03-01T00:41:10;17.03;;;13.50;;
18772;SDS011;9515;50.810;4.418;2023-03-01T00:43:38;18.73;;;13.43;;
18772;SDS011;9515;50.810;4.418;2023-03-01T00:46:04;18.93;;;13.23;;
18772;SDS011;9515;50.810;4.418;2023-03-01T00:48:32;20.40;;;13.53;;
18772;SDS011;9515;50.810;4.418;2023-03-01T00:51:04;20.53;;;14.13;;
18772;SDS011;9515;50.810;4.418;2023-03-01T00:53:37;19.93;;;13.10;;
18772;SDS011;9515;50.810;4.418;2023-03-01T00:56:03;21.20;;;13.60;;
18772;SDS011;9515;50.810;4.418;2023-03-01T00:58:30;17.87;;;13.90;;
18772;SDS011;9515;50.810;4.418;2023-03-01T01:00:55;20.53;;;13.67;;
18772;SDS011;9515;50.810;4.418;2023-03-01T01:03:21;19.20;;;13.47;;
18772;SDS011;9515;50.810;4.418;2023-03-01T01:05:48;17.73;;;13.03;;
18772;SDS011;9515;50.810;4.418;2023-03-01T01:08:13;20.60;;;13.33;;
18772;SDS011;9515;50.810;4.418;2023-03-01T01:10:39;23.50;;;13.97;;
18772;SDS011;9515;50.810;4.418;2023-03-01T01:13:05;18.70;;;13.50;;
18772;SDS011;9515;50.810;4.418;2023-03-01T01:15:34;18.23;;;13.27;;
18772;SDS011;9515;50.810;4.418;2023-03-01T01:18:00;18.87;;;13.00;;
18772;SDS011;9515;50.810;4.418;2023-03-01T01:20:26;16.23;;;12.43;;
18772;SDS011;9515;50.810;4.418;2023-03-01T01:22:51;19.13;;;12.67;;
18772;SDS011;9515;50.810;4.418;2023-03-01T01:25:17;17.40;;;11.80;;
18772;SDS011;9515;50.810;4.418;2023-03-01T01:27:43;19.67;;;12.37;;
18772;SDS011;9515;50.810;4.418;2023-03-01T01:30:09;16.97;;;11.83;;
18772;SDS011;9515;50.810;4.418;2023-03-01T01:32:35;20.90;;;13.20;;
18772;SDS011;9515;50.810;4.418;2023-03-01T01:35:00;20.00;;;13.33;;
18772;SDS011;9515;50.810;4.418;2023-03-01T01:37:26;19.83;;;13.10;;
18772;SDS011;9515;50.810;4.418;2023-03-01T01:39:56;20.47;;;13.37;;
18772;SDS011;9515;50.810;4.418;2023-03-01T01:42:23;22.73;;;14.23;;
18772;SDS011;9515;50.810;4.418;2023-03-01T01:45:15;19.53;;;13.00;;
18772;SDS011;9515;50.810;4.418;2023-03-01T01:48:03;16.23;;;12.57;;
18772;SDS011;9515;50.810;4.418;2023-03-01T01:50:31;18.73;;;12.40;;
18772;SDS011;9515;50.810;4.418;2023-03-01T01:53:04;17.73;;;13.07;;
18772;SDS011;9515;50.810;4.418;2023-03-01T01:55:36;16.90;;;12.47;;
18772;SDS011;9515;50.810;4.418;2023-03-01T01:58:04;17.70;;;12.30;;
18772;SDS011;9515;50.810;4.418;2023-03-01T02:00:33;16.80;;;12.30;;
18772;SDS011;9515;50.810;4.418;2023-03-01T02:03:03;16.27;;;12.33;;
18772;SDS011;9515;50.810;4.418;2023-03-01T02:08:19;18.03;;;12.70;;
18772;SDS011;9515;50.810;4.418;2023-03-01T02:10:46;20.57;;;12.47;;
18772;SDS011;9515;50.810;4.418;2023-03-01T02:13:14;18.23;;;12.70;;
18772;SDS011;9515;50.810;4.418;2023-03-01T02:15:39;17.67;;;12.30;;
18772;SDS011;9515;50.810;4.418;2023-03-01T02:18:06;18.30;;;12.80;;
18772;SDS011;9515;50.810;4.418;2023-03-01T02:23:30;19.10;;;12.63;;
18772;SDS011;9515;50.810;4.418;2023-03-01T02:25:58;17.27;;;11.90;;
18772;SDS011;9515;50.810;4.418;2023-03-01T02:28:42;16.97;;;12.17;;
18772;SDS011;9515;50.810;4.418;2023-03-01T02:31:09;19.40;;;12.03;;
18772;SDS011;9515;50.810;4.418;2023-03-01T02:33:54;18.20;;;11.80;;
18772;SDS011;9515;50.810;4.418;2023-03-01T02:36:23;16.90;;;11.90;;
18772;SDS011;9515;50.810;4.418;2023-03-01T02:38:52;18.10;;;11.40;;
18772;SDS011;9515;50.810;4.418;2023-03-01T02:41:20;18.37;;;11.83;;
18772;SDS011;9515;50.810;4.418;2023-03-01T02:43:47;17.60;;;12.47;;
18772;SDS011;9515;50.810;4.418;2023-03-01T02:46:15;20.33;;;12.63;;
18772;SDS011;9515;50.810;4.418;2023-03-01T02:48:48;16.13;;;11.97;;
18772;SDS011;9515;50.810;4.418;2023-03-01T02:54:28;16.30;;;12.60;;
18772;SDS011;9515;50.810;4.418;2023-03-01T02:56:55;17.77;;;12.30;;
18772;SDS011;9515;50.810;4.418;2023-03-01T02:59:22;17.83;;;12.30;;
18772;SDS011;9515;50.810;4.418;2023-03-01T03:01:52;17.13;;;12.27;;
18772;SDS011;9515;50.810;4.418;2023-03-01T03:04:18;18.43;;;13.40;;
18772;SDS011;9515;50.810;4.418;2023-03-01T03:06:46;17.73;;;12.60;;
18772;SDS011;9515;50.810;4.418;2023-03-01T03:09:14;16.33;;;12.73;;
18772;SDS011;9515;50.810;4.418;2023-03-01T03:11:41;23.10;;;12.70;;
18772;SDS011;9515;50.810;4.418;2023-03-01T03:14:08;16.23;;;12.40;;
18772;SDS011;9515;50.810;4.418;2023-03-01T03:16:47;18.13;;;12.53;;
18772;SDS011;9515;50.810;4.418;2023-03-01T03:19:15;16.43;;;12.47;;
18772;SDS011;9515;50.810;4.418;2023-03-01T03:21:41;16.70;;;12.87;;
18772;SDS011;9515;50.810;4.418;2023-03-01T03:24:07;18.07;;;12.93;;
18772;SDS011;9515;50.810;4.418;2023-03-01T03:26:33;19.47;;;12.83;;
18772;SDS011;9515;50.810;4.418;2023-03-01T03:28:59;14.83;;;11.43;;
18772;SDS011;9515;50.810;4.418;2023-03-01T03:31:25;18.57;;;12.30;;
18772;SDS011;9515;50.810;4.418;2023-03-01T03:33:50;18.73;;;12.70;;
18772;SDS011;9515;50.810;4.418;2023-03-01T03:36:20;17.33;;;12.47;;
18772;SDS011;9515;50.810;4.418;2023-03-01T03:38:48;18.50;;;13.13;;
18772;SDS011;9515;50.810;4.418;2023-03-01T03:41:14;18.17;;;12.27;;
18772;SDS011;9515;50.810;4.418;2023-03-01T03:43:40;19.33;;;12.57;;
18772;SDS011;9515;50.810;4.418;2023-03-01T03:46:08;19.10;;;13.07;;
18772;SDS011;9515;50.810;4.418;2023-03-01T03:48:36;19.77;;;13.00;;
18772;SDS011;9515;50.810;4.418;2023-03-01T03:51:03;17.93;;;12.97;;
18772;SDS011;9515;50.810;4.418;2023-03-01T03:53:32;22.37;;;13.03;;
18772;SDS011;9515;50.810;4.418;2023-03-01T03:55:58;18.30;;;12.60;;
18772;SDS011;9515;50.810;4.418;2023-03-01T03:58:25;19.70;;;13.20;;
18772;SDS011;9515;50.810;4.418;2023-03-01T04:00:52;18.63;;;13.73;;
18772;SDS011;9515;50.810;4.418;2023-03-01T04:03:20;18.60;;;12.33;;
18772;SDS011;9515;50.810;4.418;2023-03-01T04:05:47;18.90;;;13.00;;
18772;SDS011;9515;50.810;4.418;2023-03-01T04:08:14;17.50;;;12.60;;
18772;SDS011;9515;50.810;4.418;2023-03-01T04:10:41;19.93;;;13.43;;
18772;SDS011;9515;50.810;4.418;2023-03-01T04:13:12;19.43;;;12.27;;
18772;SDS011;9515;50.810;4.418;2023-03-01T04:15:41;22.30;;;13.07;;
18772;SDS011;9515;50.810;4.418;2023-03-01T04:18:13;19.70;;;12.40;;
18772;SDS011;9515;50.810;4.418;2023-03-01T04:20:39;19.17;;;12.47;;
18772;SDS011;9515;50.810;4.418;2023-03-01T04:23:07;18.30;;;13.33;;
18772;SDS011;9515;50.810;4.418;2023-03-01T04:25:49;18.00;;;12.00;;
18772;SDS011;9515;50.810;4.418;2023-03-01T04:28:26;21.30;;;12.47;;
18772;SDS011;9515;50.810;4.418;2023-03-01T04:30:54;19.33;;;13.23;;
18772;SDS011;9515;50.810;4.418;2023-03-01T04:33:20;20.00;;;12.60;;
18772;SDS011;9515;50.810;4.418;2023-03-01T04:35:46;18.53;;;12.83;;
18772;SDS011;9515;50.810;4.418;2023-03-01T04:38:14;19.30;;;13.00;;
18772;SDS011;9515;50.810;4.418;2023-03-01T04:40:40;16.97;;;12.53;;
18772;SDS011;9515;50.810;4.418;2023-03-01T04:43:08;19.17;;;13.03;;
18772;SDS011;9515;50.810;4.418;2023-03-01T04:45:34;18.87;;;12.87;;
18772;SDS011;9515;50.810;4.418;2023-03-01T04:48:01;41.47;;;15.67;;
18772;SDS011;9515;50.810;4.418;2023-03-01T04:50:28;20.83;;;13.33;;
18772;SDS011;9515;50.810;4.418;2023-03-01T04:52:53;20.07;;;12.80;;
18772;SDS011;9515;50.810;4.418;2023-03-01T04:55:23;21.00;;;13.83;;
18772;SDS011;9515;50.810;4.418;2023-03-01T04:57:51;19.93;;;13.13;;
18772;SDS011;9515;50.810;4.418;2023-03-01T05:00:17;19.37;;;12.10;;
18772;SDS011;9515;50.810;4.418;2023-03-01T05:02:46;19.60;;;12.03;;
18772;SDS011;9515;50.810;4.418;2023-03-01T05:05:24;17.53;;;11.87;;
18772;SDS011;9515;50.810;4.418;2023-03-01T05:07:56;21.37;;;12.80;;
18772;SDS011;9515;50.810;4.418;2023-03-01T05:10:23;21.27;;;13.20;;
18772;SDS011;9515;50.810;4.418;2023-03-01T05:12:50;21.43;;;12.50;;
18772;SDS011;9515;50.810;4.418;2023-03-01T05:15:17;20.20;;;12.43;;
18772;SDS011;9515;50.810;4.418;2023-03-01T05:17:43;22.03;;;12.60;;
18772;SDS011;9515;50.810;4.418;2023-03-01T05:20:09;19.73;;;13.23;;
18772;SDS011;9515;50.810;4.418;2023-03-01T05:22:35;20.47;;;13.20;;
18772;SDS011;9515;50.810;4.418;2023-03-01T05:25:02;19.30;;;12.67;;
18772;SDS011;9515;50.810;4.418;2023-03-01T05:27:28;17.37;;;11.83;;
18772;SDS011;9515;50.810;4.418;2023-03-01T05:29:54;19.57;;;13.40;;
18772;SDS011;9515;50.810;4.418;2023-03-01T05:32:20;18.83;;;13.73;;
18772;SDS011;9515;50.810;4.418;2023-03-01T05:34:46;25.40;;;15.30;;
18772;SDS011;9515;50.810;4.418;2023-03-01T05:37:12;28.17;;;13.53;;
18772;SDS011;9515;50.810;4.418;2023-03-01T05:39:38;18.33;;;13.23;;
18772;SDS011;9515;50.810;4.418;2023-03-01T05:42:04;24.67;;;13.07;;
18772;SDS011;9515;50.810;4.418;2023-03-01T05:44:30;21.37;;;13.57;;
18772;SDS011;9515;50.810;4.418;2023-03-01T05:46:56;22.53;;;12.37;;
18772;SDS011;9515;50.810;4.418;2023-03-01T05:49:22;18.33;;;13.07;;
18772;SDS011;9515;50.810;4.418;2023-03-01T05:51:51;18.57;;;12.37;;
18772;SDS011;9515;50.810;4.418;2023-03-01T05:54:19;20.67;;;13.13;;
18772;SDS011;9515;50.810;4.418;2023-03-01T05:56:46;20.63;;;12.97;;
18772;SDS011;9515;50.810;4.418;2023-03-01T05:59:12;19.13;;;13.50;;
18772;SDS011;9515;50.810;4.418;2023-03-01T06:01:38;19.17;;;13.20;;
18772;SDS011;9515;50.810;4.418;2023-03-01T06:04:04;19.43;;;13.00;;
18772;SDS011;9515;50.810;4.418;2023-03-01T06:06:34;23.57;;;14.63;;
18772;SDS011;9515;50.810;4.418;2023-03-01T06:09:05;21.17;;;13.93;;
18772;SDS011;9515;50.810;4.418;2023-03-01T06:11:33;22.13;;;13.53;;
18772;SDS011;9515;50.810;4.418;2023-03-01T06:13:59;22.87;;;13.50;;
18772;SDS011;9515;50.810;4.418;2023-03-01T06:16:25;19.10;;;12.80;;
18772;SDS011;9515;50.810;4.418;2023-03-01T06:18:50;19.47;;;13.40;;
18772;SDS011;9515;50.810;4.418;2023-03-01T06:21:16;18.83;;;12.50;;
18772;SDS011;9515;50.810;4.418;2023-03-01T06:23:42;17.47;;;12.17;;
18772;SDS011;9515;50.810;4.418;2023-03-01T06:26:08;23.33;;;12.93;;
18772;SDS011;9515;50.810;4.418;2023-03-01T06:28:34;19.10;;;12.57;;
18772;SDS011;9515;50.810;4.418;2023-03-01T06:31:00;20.73;;;13.23;;
18772;SDS011;9515;50.810;4.418;2023-03-01T06:33:26;19.53;;;11.80;;
18772;SDS011;9515;50.810;4.418;2023-03-01T06:35:55;20.00;;;12.47;;
18772;SDS011;9515;50.810;4.418;2023-03-01T06:38:21;16.70;;;12.43;;
18772;SDS011;9515;50.810;4.418;2023-03-01T06:40:55;26.07;;;13.93;;
18772;SDS011;9515;50.810;4.418;2023-03-01T06:43:21;19.53;;;13.07;;
18772;SDS011;9515;50.810;4.418;2023-03-01T06:45:48;18.67;;;12.40;;
18772;SDS011;9515;50.810;4.418;2023-03-01T06:48:14;19.63;;;12.37;;
18772;SDS011;9515;50.810;4.418;2023-03-01T06:50:39;22.13;;;13.37;;
18772;SDS011;9515;50.810;4.418;2023-03-01T06:53:05;23.77;;;12.80;;
18772;SDS011;9515;50.810;4.418;2023-03-01T06:55:31;17.97;;;12.47;;
18772;SDS011;9515;50.810;4.418;2023-03-01T06:58:00;21.83;;;12.70;;
18772;SDS011;9515;50.810;4.418;2023-03-01T07:00:27;20.90;;;13.20;;
18772;SDS011;9515;50.810;4.418;2023-03-01T07:02:54;21.97;;;12.73;;
18772;SDS011;9515;50.810;4.418;2023-03-01T07:05:19;18.83;;;12.40;;
18772;SDS011;9515;50.810;4.418;2023-03-01T07:07:45;21.20;;;12.57;;
18772;SDS011;9515;50.810;4.418;2023-03-01T07:10:11;19.90;;;11.80;;
18772;SDS011;9515;50.810;4.418;2023-03-01T07:12:37;18.13;;;11.93;;
18772;SDS011;9515;50.810;4.418;2023-03-01T07:15:03;17.97;;;11.20;;
18772;SDS011;9515;50.810;4.418;2023-03-01T07:17:30;15.47;;;10.70;;
18772;SDS011;9515;50.810;4.418;2023-03-01T07:19:56;15.00;;;10.70;;
18772;SDS011;9515;50.810;4.418;2023-03-01T07:22:22;14.67;;;10.63;;
18772;SDS011;9515;50.810;4.418;2023-03-01T07:24:47;20.07;;;12.63;;
18772;SDS011;9515;50.810;4.418;2023-03-01T07:27:13;12.53;;;10.07;;
18772;SDS011;9515;50.810;4.418;2023-03-01T07:29:39;16.77;;;10.47;;
18772;SDS011;9515;50.810;4.418;2023-03-01T07:32:04;17.83;;;11.70;;
18772;SDS011;9515;50.810;4.418;2023-03-01T07:34:30;15.60;;;10.60;;
18772;SDS011;9515;50.810;4.418;2023-03-01T07:36:56;15.03;;;10.57;;
18772;SDS011;9515;50.810;4.418;2023-03-01T07:39:22;19.07;;;11.63;;
18772;SDS011;9515;50.810;4.418;2023-03-01T07:41:51;16.93;;;12.60;;
18772;SDS011;9515;50.810;4.418;2023-03-01T07:44:16;15.73;;;11.77;;
18772;SDS011;9515;50.810;4.418;2023-03-01T07:46:42;18.17;;;10.23;;
18772;SDS011;9515;50.810;4.418;2023-03-01T07:49:09;12.50;;;9.90;;
18772;SDS011;9515;50.810;4.418;2023-03-01T07:51:35;15.30;;;9.90;;
18772;SDS011;9515;50.810;4.418;2023-03-01T07:54:01;11.90;;;10.00;;
18772;SDS011;9515;50.810;4.418;2023-03-01T07:56:27;12.37;;;10.30;;
18772;SDS011;9515;50.810;4.418;2023-03-01T07:58:52;14.63;;;11.23;;
18772;SDS011;9515;50.810;4.418;2023-03-01T08:01:19;14.60;;;10.30;;
18772;SDS011;9515;50.810;4.418;2023-03-01T08:03:45;12.57;;;10.70;;
18772;SDS011;9515;50.810;4.418;2023-03-01T08:06:13;11.63;;;9.83;;
18772;SDS011;9515;50.810;4.418;2023-03-01T08:08:41;17.10;;;11.23;;
18772;SDS011;9515;50.810;4.418;2023-03-01T08:11:07;14.67;;;10.37;;
18772;SDS011;9515;50.810;4.418;2023-03-01T08:13:34;11.53;;;10.30;;
18772;SDS011;9515;50.810;4.418;2023-03-01T08:16:04;14.03;;;10.60;;
18772;SDS011;9515;50.810;4.418;2023-03-01T08:18:35;19.60;;;11.43;;
18772;SDS011;9515;50.810;4.418;2023-03-01T08:21:11;14.70;;;10.80;;
18772;SDS011;9515;50.810;4.418;2023-03-01T08:23:38;18.40;;;10.83;;
18772;SDS011;9515;50.810;4.418;2023-03-01T08:28:30;14.53;;;11.17;;
18772;SDS011;9515;50.810;4.418;2023-03-01T08:30:56;15.03;;;11.37;;
18772;SDS011;9515;50.810;4.418;2023-03-01T08:33:22;14.40;;;10.47;;
18772;SDS011;9515;50.810;4.418;2023-03-01T08:35:47;15.77;;;11.13;;
18772;SDS011;9515;50.810;4.418;2023-03-01T08:38:13;13.23;;;10.50;;
18772;SDS011;9515;50.810;4.418;2023-03-01T08:40:39;16.20;;;10.60;;
18772;SDS011;9515;50.810;4.418;2023-03-01T08:43:04;15.73;;;10.40;;
18772;SDS011;9515;50.810;4.418;2023-03-01T08:45:30;17.20;;;11.33;;
18772;SDS011;9515;50.810;4.418;2023-03-01T08:47:55;13.73;;;10.73;;
18772;SDS011;9515;50.810;4.418;2023-03-01T08:50:21;14.17;;;10.43;;
18772;SDS011;9515;50.810;4.418;2023-03-01T08:52:49;13.87;;;11.10;;
18772;SDS011;9515;50.810;4.418;2023-03-01T08:55:15;14.73;;;11.43;;
18772;SDS011;9515;50.810;4.418;2023-03-01T08:57:42;12.13;;;10.30;;
18772;SDS011;9515;50.810;4.418;2023-03-01T09:00:08;18.53;;;10.57;;
18772;SDS011;9515;50.810;4.418;2023-03-01T09:02:36;13.40;;;10.80;;
18772;SDS011;9515;50.810;4.418;2023-03-01T09:05:02;12.30;;;10.30;;
18772;SDS011;9515;50.810;4.418;2023-03-01T09:07:28;13.73;;;11.40;;
18772;SDS011;9515;50.810;4.418;2023-03-01T09:09:54;11.97;;;10.70;;
18772;SDS011;9515;50.810;4.418;2023-03-01T09:12:20;15.07;;;11.03;;
18772;SDS011;9515;50.810;4.418;2023-03-01T09:14:45;14.57;;;11.07;;
18772;SDS011;9515;50.810;4.418;2023-03-01T09:17:11;14.50;;;10.70;;
18772;SDS011;9515;50.810;4.418;2023-03-01T09:19:37;12.60;;;10.83;;
18772;SDS011;9515;50.810;4.418;2023-03-01T09:22:03;14.40;;;10.47;;
18772;SDS011;9515;50.810;4.418;2023-03-01T09:24:30;12.47;;;10.53;;
18772;SDS011;9515;50.810;4.418;2023-03-01T09:26:55;13.53;;;10.47;;
18772;SDS011;9515;50.810;4.418;2023-03-01T09:29:21;14.97;;;11.87;;
18772;SDS011;9515;50.810;4.418;2023-03-01T09:31:48;15.97;;;11.93;;
18772;SDS011;9515;50.810;4.418;2023-03-01T09:34:14;15.17;;;10.87;;
18772;SDS011;9515;50.810;4.418;2023-03-01T09:36:44;15.27;;;11.23;;
18772;SDS011;9515;50.810;4.418;2023-03-01T09:39:09;15.97;;;11.37;;
18772;SDS011;9515;50.810;4.418;2023-03-01T09:46:45;13.50;;;11.20;;
18772;SDS011;9515;50.810;4.418;2023-03-01T09:49:18;17.10;;;11.43;;
18772;SDS011;9515;50.810;4.418;2023-03-01T09:51:53;16.67;;;11.90;;
18772;SDS011;9515;50.810;4.418;2023-03-01T09:54:21;13.70;;;11.93;;
18772;SDS011;9515;50.810;4.418;2023-03-01T09:56:52;19.02;;;12.45;;
18772;SDS011;9515;50.810;4.418;2023-03-01T10:08:11;14.02;;;12.27;;
18772;SDS011;9515;50.810;4.418;2023-03-01T10:10:49;16.02;;;11.70;;
18772;SDS011;9515;50.810;4.418;2023-03-01T10:13:19;16.13;;;11.57;;
18772;SDS011;9515;50.810;4.418;2023-03-01T10:15:53;15.70;;;13.25;;
18772;SDS011;9515;50.810;4.418;2023-03-01T10:18:27;13.95;;;11.75;;
18772;SDS011;9515;50.810;4.418;2023-03-01T10:20:59;16.75;;;12.80;;
18772;SDS011;9515;50.810;4.418;2023-03-01T10:23:26;15.85;;;11.15;;
18772;SDS011;9515;50.810;4.418;2023-03-01T10:31:39;15.82;;;12.60;;
18772;SDS011;9515;50.810;4.418;2023-03-01T10:34:09;16.08;;;12.45;;
18772;SDS011;9515;50.810;4.418;2023-03-01T10:36:36;14.85;;;12.45;;
18772;SDS011;9515;50.810;4.418;2023-03-01T10:39:06;14.65;;;12.45;;
18772;SDS011;9515;50.810;4.418;2023-03-01T10:42:26;15.50;;;13.18;;
18772;SDS011;9515;50.810;4.418;2023-03-01T10:44:45;14.52;;;12.48;;
18772;SDS011;9515;50.810;4.418;2023-03-01T10:47:33;15.38;;;13.50;;
18772;SDS011;9515;50.810;4.418;2023-03-01T10:49:59;13.80;;;12.30;;
18772;SDS011;9515;50.810;4.418;2023-03-01T10:52:27;20.38;;;13.00;;
18772;SDS011;9515;50.810;4.418;2023-03-01T10:54:59;17.85;;;12.57;;
18772;SDS011;9515;50.810;4.418;2023-03-01T10:57:44;14.00;;;12.35;;
18772;SDS011;9515;50.810;4.418;2023-03-01T11:03:08;13.13;;;11.82;;
18772;SDS011;9515;50.810;4.418;2023-03-01T11:05:37;13.73;;;12.23;;
18772;SDS011;9515;50.810;4.418;2023-03-01T11:08:29;13.23;;;11.82;;
18772;SDS011;9515;50.810;4.418;2023-03-01T11:11:43;13.45;;;11.68;;
18772;SDS011;9515;50.810;4.418;2023-03-01T11:13:59;13.40;;;11.93;;
18772;SDS011;9515;50.810;4.418;2023-03-01T11:16:46;13.85;;;12.05;;
18772;SDS011;9515;50.810;4.418;2023-03-01T11:21:43;13.55;;;11.65;;
18772;SDS011;9515;50.810;4.418;2023-03-01T11:24:16;15.90;;;12.00;;
18772;SDS011;9515;50.810;4.418;2023-03-01T11:26:45;14.63;;;11.77;;
18772;SDS011;9515;50.810;4.418;2023-03-01T11:29:38;13.57;;;11.80;;
18772;SDS011;9515;50.810;4.418;2023-03-01T11:32:06;13.50;;;12.00;;
18772;SDS011;9515;50.810;4.418;2023-03-01T11:34:48;12.93;;;11.45;;
18772;SDS011;9515;50.810;4.418;2023-03-01T11:37:37;13.00;;;11.27;;
18772;SDS011;9515;50.810;4.418;2023-03-01T11:40:16;30.52;;;11.85;;
18772;SDS011;9515;50.810;4.418;2023-03-01T11:42:56;12.98;;;11.40;;
18772;SDS011;9515;50.810;4.418;2023-03-01T11:50:50;13.95;;;11.75;;
18772;SDS011;9515;50.810;4.418;2023-03-01T11:58:43;14.35;;;12.88;;
18772;SDS011;9515;50.810;4.418;2023-03-01T12:06:56;63.78;;;13.30;;
18772;SDS011;9515;50.810;4.418;2023-03-01T12:12:08;12.80;;;11.55;;
18772;SDS011;9515;50.810;4.418;2023-03-01T12:22:30;12.43;;;10.55;;
18772;SDS011;9515;50.810;4.418;2023-03-01T12:33:37;13.45;;;10.27;;
18772;SDS011;9515;50.810;4.418;2023-03-01T12:50:18;13.85;;;10.80;;
18772;SDS011;9515;50.810;4.418;2023-03-01T13:00:45;10.88;;;9.80;;
18772;SDS011;9515;50.810;4.418;2023-03-01T13:11:18;12.65;;;10.25;;
18772;SDS011;9515;50.810;4.418;2023-03-01T13:13:46;12.68;;;10.38;;
18772;SDS011;9515;50.810;4.418;2023-03-01T13:16:46;16.60;;;10.45;;
18772;SDS011;9515;50.810;4.418;2023-03-01T13:19:17;11.90;;;10.70;;
18772;SDS011;9515;50.810;4.418;2023-03-01T13:21:45;11.52;;;10.27;;
18772;SDS011;9515;50.810;4.418;2023-03-01T13:24:35;12.50;;;10.25;;
18772;SDS011;9515;50.810;4.418;2023-03-01T13:29:44;11.82;;;10.23;;
18772;SDS011;9515;50.810;4.418;2023-03-01T13:37:44;11.20;;;10.00;;
18772;SDS011;9515;50.810;4.418;2023-03-01T13:42:46;19.17;;;10.98;;
18772;SDS011;9515;50.810;4.418;2023-03-01T13:45:21;13.52;;;9.88;;
18772;SDS011;9515;50.810;4.418;2023-03-01T13:47:59;15.13;;;10.75;;
18772;SDS011;9515;50.810;4.418;2023-03-01T13:50:50;12.02;;;10.50;;
18772;SDS011;9515;50.810;4.418;2023-03-01T13:53:21;16.17;;;10.95;;
18772;SDS011;9515;50.810;4.418;2023-03-01T13:55:54;13.98;;;10.07;;
18772;SDS011;9515;50.810;4.418;2023-03-01T13:58:23;12.82;;;9.82;;
18772;SDS011;9515;50.810;4.418;2023-03-01T14:00:58;12.38;;;9.95;;
18772;SDS011;9515;50.810;4.418;2023-03-01T14:03:29;15.05;;;10.18;;
18772;SDS011;9515;50.810;4.418;2023-03-01T14:08:34;11.20;;;9.38;;
18772;SDS011;9515;50.810;4.418;2023-03-01T14:19:30;13.52;;;10.13;;
18772;SDS011;9515;50.810;4.418;2023-03-01T14:24:49;12.45;;;10.90;;
18772;SDS011;9515;50.810;4.418;2023-03-01T14:27:16;12.65;;;9.93;;
18772;SDS011;9515;50.810;4.418;2023-03-01T14:29:44;11.68;;;10.25;;
18772;SDS011;9515;50.810;4.418;2023-03-01T14:32:21;14.02;;;10.43;;
18772;SDS011;9515;50.810;4.418;2023-03-01T14:34:50;15.85;;;10.60;;
18772;SDS011;9515;50.810;4.418;2023-03-01T14:37:24;17.35;;;9.82;;
18772;SDS011;9515;50.810;4.418;2023-03-01T14:39:55;13.32;;;10.30;;
18772;SDS011;9515;50.810;4.418;2023-03-01T14:42:23;14.20;;;10.77;;
18772;SDS011;9515;50.810;4.418;2023-03-01T14:44:54;17.30;;;9.95;;
18772;SDS011;9515;50.810;4.418;2023-03-01T14:47:32;30.88;;;11.27;;
18772;SDS011;9515;50.810;4.418;2023-03-01T14:50:18;27.95;;;11.13;;
18772;SDS011;9515;50.810;4.418;2023-03-01T14:52:45;25.55;;;10.85;;
18772;SDS011;9515;50.810;4.418;2023-03-01T14:55:15;12.23;;;10.07;;
18772;SDS011;9515;50.810;4.418;2023-03-01T14:57:44;12.13;;;10.73;;
18772;SDS011;9515;50.810;4.418;2023-03-01T15:00:17;18.55;;;11.50;;
18772;SDS011;9515;50.810;4.418;2023-03-01T15:02:47;15.93;;;10.30;;
18772;SDS011;9515;50.810;4.418;2023-03-01T15:05:15;95.10;;;17.17;;
18772;SDS011;9515;50.810;4.418;2023-03-01T15:07:43;28.00;;;10.65;;
18772;SDS011;9515;50.810;4.418;2023-03-01T15:10:24;54.90;;;14.95;;
18772;SDS011;9515;50.810;4.418;2023-03-01T15:12:54;21.27;;;10.88;;
18772;SDS011;9515;50.810;4.418;2023-03-01T15:15:34;15.13;;;10.95;;
18772;SDS011;9515;50.810;4.418;2023-03-01T15:18:19;20.20;;;10.98;;
18772;SDS011;9515;50.810;4.418;2023-03-01T15:20:49;17.67;;;11.18;;
18772;SDS011;9515;50.810;4.418;2023-03-01T15:23:20;19.67;;;12.27;;
18772;SDS011;9515;50.810;4.418;2023-03-01T15:25:51;12.50;;;11.18;;
18772;SDS011;9515;50.810;4.418;2023-03-01T15:28:22;14.88;;;11.05;;
18772;SDS011;9515;50.810;4.418;2023-03-01T15:31:19;13.63;;;10.80;;
18772;SDS011;9515;50.810;4.418;2023-03-01T15:33:46;13.07;;;10.30;;
18772;SDS011;9515;50.810;4.418;2023-03-01T15:36:35;13.38;;;10.93;;
18772;SDS011;9515;50.810;4.418;2023-03-01T15:39:23;13.95;;;11.13;;
18772;SDS011;9515;50.810;4.418;2023-03-01T15:41:51;11.80;;;10.00;;
18772;SDS011;9515;50.810;4.418;2023-03-01T15:44:18;16.27;;;9.73;;
18772;SDS011;9515;50.810;4.418;2023-03-01T15:46:54;40.33;;;12.73;;
18772;SDS011;9515;50.810;4.418;2023-03-01T15:52:10;27.93;;;11.63;;
18772;SDS011;9515;50.810;4.418;2023-03-01T15:54:40;15.00;;;10.27;;
18772;SDS011;9515;50.810;4.418;2023-03-01T15:57:10;14.53;;;9.80;;
18772;SDS011;9515;50.810;4.418;2023-03-01T15:59:39;12.43;;;10.33;;
18772;SDS011;9515;50.810;4.418;2023-03-01T16:02:10;12.80;;;9.70;;
18772;SDS011;9515;50.810;4.418;2023-03-01T16:04:37;19.10;;;9.63;;
18772;SDS011;9515;50.810;4.418;2023-03-01T16:07:04;13.60;;;9.60;;
18772;SDS011;9515;50.810;4.418;2023-03-01T16:09:30;17.93;;;10.53;;
18772;SDS011;9515;50.810;4.418;2023-03-01T16:11:55;13.03;;;9.13;;
18772;SDS011;9515;50.810;4.418;2023-03-01T16:14:21;16.70;;;9.57;;
18772;SDS011;9515;50.810;4.418;2023-03-01T16:16:47;21.30;;;9.97;;
18772;SDS011;9515;50.810;4.418;2023-03-01T16:19:14;11.47;;;9.63;;
18772;SDS011;9515;50.810;4.418;2023-03-01T16:21:40;15.17;;;9.83;;
18772;SDS011;9515;50.810;4.418;2023-03-01T16:24:07;17.80;;;10.03;;
18772;SDS011;9515;50.810;4.418;2023-03-01T16:26:33;13.77;;;9.03;;
18772;SDS011;9515;50.810;4.418;2023-03-01T16:28:59;14.97;;;8.90;;
18772;SDS011;9515;50.810;4.418;2023-03-01T16:31:25;13.40;;;8.50;;
18772;SDS011;9515;50.810;4.418;2023-03-01T16:33:55;13.30;;;9.10;;
18772;SDS011;9515;50.810;4.418;2023-03-01T16:36:22;13.33;;;9.20;;
18772;SDS011;9515;50.810;4.418;2023-03-01T16:38:49;14.57;;;8.60;;
18772;SDS011;9515;50.810;4.418;2023-03-01T16:41:17;12.47;;;8.37;;
18772;SDS011;9515;50.810;4.418;2023-03-01T16:43:44;11.27;;;8.53;;
18772;SDS011;9515;50.810;4.418;2023-03-01T16:46:12;11.73;;;8.53;;
18772;SDS011;9515;50.810;4.418;2023-03-01T16:48:39;13.63;;;8.10;;
18772;SDS011;9515;50.810;4.418;2023-03-01T16:51:05;12.57;;;8.50;;
18772;SDS011;9515;50.810;4.418;2023-03-01T16:53:32;14.00;;;8.33;;
18772;SDS011;9515;50.810;4.418;2023-03-01T16:55:59;12.70;;;8.43;;
18772;SDS011;9515;50.810;4.418;2023-03-01T16:58:25;13.63;;;9.17;;